Time;durP1;ratioP1;P1;durP2;ratioP2;P2;SDS_P1;SDS_P2;PMS_P1;PMS_P2;Temp;Humidity;BMP_temperature;BMP_pressure;BME280_temperature;BME280_humidity;BME280_pressure;Samples;Min_cycle;Max_cycle;Signal;HPM_P1;HPM_P2
2022/02/02 00:01:05;;;;;;;31.35;23.58;;;2.40;59.00;;;;;;5062398;28;20621;-60
2022/02/02 00:03:31;;;;;;;38.03;18.08;;;2.50;59.30;;;;;;5056807;28;20159;-59
2022/02/02 00:06:11;;;;;;;28.33;16.75;;;2.50;59.30;;;;;;5044652;28;20112;-59
2022/02/02 00:08:50;;;;;;;35.92;26.73;;;2.50;59.50;;;;;;5045859;28;20028;-60
2022/02/02 00:19:04;;;;;;;30.98;18.77;;;2.60;59.90;;;;;;5057996;28;20400;-60
2022/02/02 00:24:07;;;;;;;41.78;32.63;;;2.60;60.00;;;;;;5057928;28;20499;-60
2022/02/02 00:26:38;;;;;;;42.25;34.17;;;2.70;60.00;;;;;;5058705;28;20040;-60
2022/02/02 00:29:10;;;;;;;37.33;22.63;;;2.70;60.00;;;;;;5059925;28;20025;-60
2022/02/02 00:31:42;;;;;;;41.75;33.03;;;2.70;60.00;;;;;;5067821;28;20029;-59
2022/02/02 00:34:12;;;;;;;39.47;21.55;;;2.80;60.10;;;;;;5046587;28;20037;-60
2022/02/02 00:37:11;;;;;;;34.70;19.20;;;2.80;60.00;;;;;;5053543;28;20032;-59
2022/02/02 00:39:30;;;;;;;32.90;17.98;;;2.70;60.10;;;;;;5044955;28;20037;-59
2022/02/02 00:41:57;;;;;;;28.30;16.70;;;2.70;60.20;;;;;;5062067;28;20032;-60
2022/02/02 00:44:24;;;;;;;28.52;17.33;;;2.70;60.20;;;;;;5058869;28;20036;-60
2022/02/02 00:46:50;;;;;;;32.08;25.45;;;2.70;60.30;;;;;;5049114;28;20049;-60
2022/02/02 00:49:16;;;;;;;31.92;17.52;;;2.80;60.60;;;;;;5052965;28;20385;-60
2022/02/02 00:54:11;;;;;;;30.08;24.25;;;2.80;60.30;;;;;;5060322;28;20513;-60
2022/02/02 00:56:37;;;;;;;30.23;16.83;;;2.80;60.30;;;;;;5045499;28;20040;-60
2022/02/02 00:59:03;;;;;;;23.63;16.00;;;2.80;60.10;;;;;;5052568;28;20388;-60
2022/02/02 01:01:29;;;;;;;29.65;23.25;;;2.70;60.20;;;;;;5056125;28;20602;-60
2022/02/02 01:03:54;;;;;;;25.23;15.57;;;2.80;60.30;;;;;;5061094;28;20477;-60
2022/02/02 01:06:22;;;;;;;30.48;15.45;;;2.70;60.20;;;;;;5048654;28;20082;-60
2022/02/02 01:09:28;;;;;;;28.52;22.23;;;2.70;60.30;;;;;;5048965;28;20025;-60
2022/02/02 01:15:10;;;;;;;23.40;14.23;;;2.70;60.40;;;;;;5054609;28;20025;-60
2022/02/02 01:19:55;;;;;;;22.88;13.13;;;2.60;60.50;;;;;;5049616;28;20162;-60
2022/02/02 01:27:44;;;;;;;26.88;20.60;;;2.60;60.50;;;;;;5052588;28;20028;-60
2022/02/02 01:27:51;;;;;;;25.95;13.93;;;2.70;60.50;;;;;;5051205;28;20108;-60
2022/02/02 01:30:18;;;;;;;24.55;12.60;;;2.60;60.50;;;;;;5063981;28;20021;-59
2022/02/02 01:32:44;;;;;;;25.02;14.15;;;2.60;60.70;;;;;;5053135;28;20021;-59
2022/02/02 01:35:15;;;;;;;29.58;20.60;;;2.60;60.70;;;;;;5052845;28;20037;-60
2022/02/02 01:37:46;;;;;;;22.83;15.15;;;2.70;60.90;;;;;;5051339;28;20033;-60
2022/02/02 01:40:28;;;;;;;24.35;13.60;;;2.70;60.70;;;;;;5063905;28;20098;-60
2022/02/02 01:43:02;;;;;;;20.27;13.80;;;2.70;60.80;;;;;;5051578;28;20033;-60
2022/02/02 01:45:53;;;;;;;17.45;12.65;;;2.70;60.80;;;;;;5053504;28;20037;-60
2022/02/02 01:48:33;;;;;;;20.50;11.90;;;2.70;60.80;;;;;;5050741;28;20497;-60
2022/02/02 01:55:53;;;;;;;25.73;18.70;;;2.70;60.60;;;;;;5053452;28;20122;-60
2022/02/02 02:00:50;;;;;;;25.25;18.80;;;2.80;60.60;;;;;;5039877;28;20040;-60
2022/02/02 02:03:16;;;;;;;26.25;12.88;;;2.80;60.40;;;;;;5052098;28;20488;-60
2022/02/02 02:05:42;;;;;;;21.88;11.95;;;2.80;60.40;;;;;;5059344;28;20101;-60
2022/02/02 02:08:08;;;;;;;26.90;19.63;;;2.70;60.50;;;;;;5053800;28;20552;-60
2022/02/02 02:10:33;;;;;;;27.80;13.77;;;2.70;60.30;;;;;;5053290;28;20461;-60
2022/02/02 02:13:06;;;;;;;30.20;22.02;;;2.70;60.10;;;;;;5060125;28;20035;-60
2022/02/02 02:15:33;;;;;;;28.70;16.48;;;2.70;60.10;;;;;;5048546;28;20047;-60
2022/02/02 02:17:59;;;;;;;24.83;16.05;;;2.60;59.90;;;;;;5056373;28;20086;-60
2022/02/02 02:20:25;;;;;;;21.45;12.82;;;2.60;60.10;;;;;;5060456;28;20033;-60
2022/02/02 02:22:51;;;;;;;27.80;21.23;;;2.50;60.20;;;;;;5057100;28;20109;-59
2022/02/02 02:25:25;;;;;;;25.00;15.68;;;2.50;60.30;;;;;;5051987;28;20112;-59
2022/02/02 02:27:52;;;;;;;27.42;14.27;;;2.50;60.30;;;;;;5055271;28;20021;-59
2022/02/02 02:30:40;;;;;;;27.33;15.80;;;2.40;60.30;;;;;;5047122;28;20025;-60
2022/02/02 02:36:18;;;;;;;29.35;20.67;;;2.40;60.70;;;;;;5061801;28;20027;-60
2022/02/02 02:57:19;;;;;;;35.72;26.40;;;2.60;60.60;;;;;;5051930;28;20032;-58
2022/02/02 03:29:56;;;;;;;25.85;15.60;;;2.50;61.30;;;;;;5065597;28;20503;-58
2022/02/02 04:07:44;;;;;;;28.33;16.25;;;2.10;62.20;;;;;;5050134;28;20039;-60
2022/02/02 04:10:03;;;;;;;23.55;13.45;;;2.10;62.30;;;;;;5040460;28;20080;-60
2022/02/02 04:12:48;;;;;;;21.25;12.70;;;2.10;62.40;;;;;;5037118;28;20109;-60
2022/02/02 04:55:53;;;;;;;27.38;15.55;;;2.00;63.40;;;;;;5049880;28;20510;-60
2022/02/02 05:53:29;;;;;;;43.72;27.27;;;1.90;67.90;;;;;;5058027;28;20380;-59
2022/02/02 05:55:56;;;;;;;38.45;17.10;;;1.90;68.40;;;;;;5057136;28;20104;-60
2022/02/02 05:58:27;;;;;;;44.55;17.77;;;1.90;68.30;;;;;;5042183;28;20029;-63
2022/02/02 06:00:54;;;;;;;;;;;1.80;68.40;;;;;;5047312;28;20473;-63
2022/02/02 06:03:38;;;;;;;31.33;19.52;;;1.70;69.90;;;;;;5035586;28;19967;-63
2022/02/02 06:06:04;;;;;;;28.88;12.60;;;1.70;69.80;;;;;;5054144;28;20557;-63
2022/02/02 06:08:30;;;;;;;39.25;23.75;;;1.60;69.90;;;;;;5051617;28;20108;-63
2022/02/02 06:10:59;;;;;;;35.08;24.65;;;1.60;70.80;;;;;;5054205;28;20055;-63
2022/02/02 06:13:39;;;;;;;30.75;15.60;;;1.60;71.50;;;;;;5047281;28;20033;-63
2022/02/02 06:16:06;;;;;;;42.45;26.85;;;1.50;71.40;;;;;;5038733;28;20040;-59
2022/02/02 06:18:34;;;;;;;39.30;18.65;;;1.50;72.00;;;;;;5041562;28;20040;-59
2022/02/02 06:21:03;;;;;;;44.10;30.15;;;1.50;71.80;;;;;;5047696;28;20090;-58
2022/02/02 06:23:30;;;;;;;48.75;30.98;;;1.50;72.60;;;;;;5044121;28;20476;-59
2022/02/02 06:25:59;;;;;;;56.60;36.95;;;1.60;73.00;;;;;;5042776;28;20075;-59
2022/02/02 06:28:32;;;;;;;57.30;38.72;;;1.70;73.40;;;;;;5043977;28;20025;-59
2022/02/02 06:31:01;;;;;;;38.65;18.50;;;1.70;73.70;;;;;;5052504;28;20029;-58
2022/02/02 06:33:37;;;;;;;54.40;35.85;;;1.80;72.90;;;;;;5044790;28;20041;-58
2022/02/02 06:36:05;;;;;;;54.78;23.38;;;1.80;73.40;;;;;;5049464;28;20384;-58
2022/02/02 06:38:32;;;;;;;54.85;21.83;;;1.80;72.90;;;;;;5047124;28;20035;-59
2022/02/02 06:40:59;;;;;;;63.88;24.65;;;1.80;72.70;;;;;;5041566;28;20033;-58
2022/02/02 06:43:26;;;;;;;54.97;25.08;;;1.80;72.60;;;;;;5051537;28;20102;-59
2022/02/02 06:45:53;;;;;;;68.97;26.65;;;1.80;72.70;;;;;;5041658;28;20036;-59
2022/02/02 06:48:19;;;;;;;77.63;51.78;;;1.90;72.70;;;;;;5040484;28;20037;-59
2022/02/02 06:50:57;;;;;;;73.28;33.67;;;2.00;73.40;;;;;;5036003;28;20032;-60
2022/02/02 06:53:35;;;;;;;91.45;53.67;;;2.00;73.00;;;;;;5047642;28;20667;-59
2022/02/02 07:04:48;;;;;;;80.28;48.38;;;2.30;73.30;;;;;;5049508;28;20036;-59
2022/02/02 07:07:41;;;;;;;79.97;49.45;;;2.40;73.90;;;;;;5042299;28;20038;-60
2022/02/02 07:10:25;;;;;;;73.20;47.28;;;2.50;74.00;;;;;;5035211;28;20052;-60
2022/02/02 07:18:57;;;;;;;58.88;26.98;;;2.80;73.50;;;;;;5032330;28;20749;-59
2022/02/02 07:29:42;;;;;;;55.15;23.33;;;3.20;72.90;;;;;;5038304;28;20036;-58
2022/02/02 07:32:17;;;;;;;42.33;20.77;;;3.30;72.80;;;;;;5030940;28;20033;-60
2022/02/02 07:34:43;;;;;;;48.50;33.20;;;3.30;72.40;;;;;;5034361;28;20049;-60
2022/02/02 07:37:14;;;;;;;51.90;22.70;;;3.50;72.70;;;;;;5030321;28;20072;-60
2022/02/02 07:39:43;;;;;;;49.50;22.10;;;3.60;72.30;;;;;;5032910;28;20594;-60
2022/02/02 07:42:10;;;;;;;42.47;20.10;;;3.60;72.20;;;;;;5038072;28;20567;-61
2022/02/02 07:44:37;;;;;;;51.08;35.35;;;3.70;72.30;;;;;;5032832;28;20501;-61
2022/02/02 07:47:10;;;;;;;53.58;25.20;;;3.90;72.30;;;;;;5035814;28;20520;-62
2022/02/02 07:49:39;;;;;;;56.63;24.95;;;4.00;72.30;;;;;;5034423;28;20055;-61
2022/02/02 07:52:08;;;;;;;61.78;36.10;;;4.10;72.00;;;;;;5029535;28;20040;-61
2022/02/02 07:54:38;;;;;;;75.00;47.38;;;4.20;71.70;;;;;;5037233;28;20032;-60
2022/02/02 07:57:11;;;;;;;77.78;51.17;;;4.30;71.30;;;;;;5035793;28;20115;-60
2022/02/02 08:02:08;;;;;;;79.25;33.83;;;4.50;70.60;;;;;;5033037;28;20456;-61
2022/02/02 08:04:35;;;;;;;84.97;55.65;;;4.60;70.40;;;;;;5033450;28;20168;-61
2022/02/02 08:07:01;;;;;;;73.78;35.58;;;4.70;70.30;;;;;;5029108;28;20034;-61
2022/02/02 08:09:47;;;;;;;72.43;38.83;;;4.70;70.10;;;;;;5025764;28;20083;-62
2022/02/02 08:12:19;;;;;;;80.15;52.80;;;4.70;70.00;;;;;;5033190;28;20029;-59
2022/02/02 08:14:53;;;;;;;91.40;55.95;;;4.80;70.30;;;;;;5022655;28;20042;-59
2022/02/02 08:17:18;;;;;;;74.25;39.42;;;4.90;70.10;;;;;;5015447;28;20109;-61
2022/02/02 08:19:44;;;;;;;80.60;36.20;;;5.00;69.80;;;;;;5002754;28;20041;-59
2022/02/02 08:22:10;;;;;;;92.88;47.33;;;5.00;70.00;;;;;;5019085;28;20057;-61
2022/02/02 08:24:35;;;;;;;95.22;37.53;;;5.10;69.80;;;;;;5026701;28;20032;-63
2022/02/02 08:27:01;;;;;;;91.07;40.08;;;5.20;69.80;;;;;;5025625;28;20137;-60
2022/02/02 08:29:27;;;;;;;93.00;45.28;;;5.30;69.70;;;;;;5019916;28;20039;-62
2022/02/02 08:31:53;;;;;;;88.53;40.42;;;5.30;69.30;;;;;;5019318;28;20025;-61
2022/02/02 08:34:19;;;;;;;82.07;37.75;;;5.40;69.30;;;;;;5023834;28;20040;-63
2022/02/02 08:36:50;;;;;;;71.78;33.88;;;5.40;68.80;;;;;;5025346;28;20142;-62
2022/02/02 08:39:49;;;;;;;78.90;36.28;;;5.40;68.50;;;;;;5027067;28;20031;-61
2022/02/02 08:42:14;;;;;;;69.00;34.92;;;5.40;68.50;;;;;;5020433;28;20047;-61
2022/02/02 08:44:46;;;;;;;66.85;34.05;;;5.30;68.30;;;;;;5026461;28;20033;-60
2022/02/02 08:47:17;;;;;;;51.35;28.48;;;5.30;68.40;;;;;;5027167;28;20125;-63
2022/02/02 08:49:49;;;;;;;46.42;22.17;;;5.30;68.70;;;;;;5027421;28;20057;-62
2022/02/02 08:52:15;;;;;;;47.65;23.42;;;5.30;68.60;;;;;;5027027;28;20029;-63
2022/02/02 08:54:48;;;;;;;39.33;20.20;;;5.30;68.40;;;;;;5027079;28;20055;-63
2022/02/02 09:00:22;;;;;;;34.28;18.45;;;5.40;68.60;;;;;;4966852;28;20034;-60
2022/02/02 09:05:20;;;;;;;40.13;23.88;;;5.40;68.40;;;;;;5016427;28;20069;-61
2022/02/02 09:05:42;;;;;;;43.10;20.60;;;5.40;68.30;;;;;;5025993;28;20032;-62
2022/02/02 09:08:08;;;;;;;53.30;25.35;;;5.40;68.10;;;;;;5022064;28;20095;-63
2022/02/02 09:24:47;;;;;;;24.02;11.63;;;5.00;67.90;;;;;;5014442;28;20052;-61
2022/02/02 09:32:59;;;;;;;20.02;15.30;;;4.90;68.50;;;;;;5026272;28;20075;-60
2022/02/02 09:35:24;;;;;;;26.15;11.35;;;4.80;68.70;;;;;;5031993;28;21168;-60
2022/02/02 09:37:51;;;;;;;19.13;15.15;;;4.60;68.90;;;;;;5033870;28;20033;-61
2022/02/02 09:42:54;;;;;;;;;;;4.50;69.20;;;;;;5022867;28;20029;-62
2022/02/02 09:45:20;;;;;;;12.48;8.32;;;4.40;69.80;;;;;;5031267;28;19936;-60
2022/02/02 09:47:56;;;;;;;12.40;7.88;;;4.30;69.50;;;;;;5022616;28;20046;-60
2022/02/02 09:50:29;;;;;;;14.95;8.23;;;4.20;69.80;;;;;;5031014;28;20045;-62
2022/02/02 09:52:58;;;;;;;13.93;11.60;;;4.10;70.00;;;;;;5029143;28;20746;-60
2022/02/02 10:01:04;;;;;;;14.48;7.13;;;3.90;71.40;;;;;;5010598;28;22308;-61
2022/02/02 10:06:32;;;;;;;15.70;10.95;;;3.80;72.30;;;;;;5023279;28;20133;-61
2022/02/02 10:14:15;;;;;;;15.20;11.30;;;3.80;72.90;;;;;;5017529;28;20115;-60
2022/02/02 10:16:46;;;;;;;12.65;7.25;;;3.90;73.40;;;;;;5028924;28;20496;-60
2022/02/02 10:19:17;;;;;;;12.20;7.15;;;4.00;72.90;;;;;;5029758;28;20037;-59
2022/02/02 10:21:43;;;;;;;14.77;7.85;;;4.20;72.70;;;;;;5029830;28;20067;-59
2022/02/02 10:24:09;;;;;;;11.10;7.07;;;4.20;72.30;;;;;;5037075;28;20598;-59
2022/02/02 10:26:49;;;;;;;12.50;10.32;;;4.40;72.20;;;;;;5026148;28;20037;-60
2022/02/02 10:29:15;;;;;;;10.80;7.38;;;4.50;71.90;;;;;;5013495;28;20029;-60
2022/02/02 10:31:57;;;;;;;12.77;9.15;;;4.50;71.40;;;;;;5030107;28;20076;-60
2022/02/02 10:34:23;;;;;;;14.13;9.98;;;4.50;71.10;;;;;;5064731;28;20044;-60
2022/02/02 10:37:15;;;;;;;10.50;7.95;;;4.50;70.70;;;;;;5018156;28;20029;-60
2022/02/02 10:39:48;;;;;;;;;;;4.60;70.10;;;;;;5026280;28;20039;-60
2022/02/02 10:42:33;;;;;;;10.02;8.50;;;4.60;70.00;;;;;;5028099;28;19938;-60
2022/02/02 10:45:16;;;;;;;9.80;6.50;;;4.70;70.10;;;;;;5043021;28;20025;-61
2022/02/02 10:47:42;;;;;;;10.63;8.48;;;4.60;69.90;;;;;;5001496;28;20053;-59
2022/02/02 10:50:23;;;;;;;11.88;6.30;;;4.60;70.50;;;;;;5031412;28;20025;-62
2022/02/02 10:56:19;;;;;;;10.35;7.03;;;4.30;71.00;;;;;;5013827;28;20032;-60
2022/02/02 11:09:03;;;;;;;11.82;6.88;;;3.60;73.50;;;;;;5037729;28;20087;-60
2022/02/02 11:11:29;;;;;;;10.43;7.78;;;3.50;73.30;;;;;;5043551;28;20056;-61
2022/02/02 11:14:03;;;;;;;10.88;6.65;;;3.40;74.10;;;;;;5041530;28;20029;-60
2022/02/02 11:16:34;;;;;;;11.43;8.10;;;3.40;74.00;;;;;;5031378;28;20025;-60
2022/02/02 11:19:02;;;;;;;9.65;6.07;;;3.40;74.70;;;;;;5038254;28;20056;-61
2022/02/02 11:21:33;;;;;;;11.32;8.70;;;3.40;74.70;;;;;;5039784;28;20511;-61
2022/02/02 11:24:16;;;;;;;7.32;5.03;;;3.40;75.20;;;;;;5033747;28;20115;-61
2022/02/02 11:26:44;;;;;;;9.93;6.82;;;3.30;75.10;;;;;;5021470;28;20036;-61
2022/02/02 11:29:30;;;;;;;11.15;7.28;;;3.30;75.10;;;;;;5032576;28;20112;-61
2022/02/02 11:32:08;;;;;;;10.52;8.07;;;3.20;75.40;;;;;;5024743;28;20033;-61
2022/02/02 11:34:33;;;;;;;15.88;7.60;;;3.20;76.10;;;;;;5030518;28;20037;-60
2022/02/02 11:37:04;;;;;;;10.35;6.22;;;3.10;75.90;;;;;;5027297;28;20029;-61
2022/02/02 11:39:43;;;;;;;12.52;9.02;;;3.00;76.00;;;;;;5028449;28;21576;-59
2022/02/02 11:42:42;;;;;;;13.80;9.98;;;3.10;76.60;;;;;;5033441;28;20128;-60
2022/02/02 11:45:37;;;;;;;12.30;7.35;;;3.20;76.90;;;;;;5033150;28;20080;-60
2022/02/02 11:48:09;;;;;;;21.25;8.15;;;3.10;76.30;;;;;;5034166;28;20049;-60
2022/02/02 11:50:53;;;;;;;22.00;10.88;;;3.00;76.50;;;;;;5034780;28;20156;-59
2022/02/02 11:53:53;;;;;;;12.25;6.25;;;2.90;76.90;;;;;;5037284;28;20075;-59
2022/02/02 11:56:22;;;;;;;16.75;8.40;;;2.90;77.10;;;;;;5025379;28;20049;-61
2022/02/02 11:58:48;;;;;;;14.05;8.77;;;2.80;77.40;;;;;;5034045;28;20043;-63
2022/02/02 12:01:39;;;;;;;13.07;9.93;;;2.80;77.50;;;;;;5027683;28;21051;-59
2022/02/02 12:04:41;;;;;;;11.20;5.68;;;2.90;77.60;;;;;;5027564;28;20384;-60
2022/02/02 12:07:16;;;;;;;9.45;6.28;;;3.00;77.30;;;;;;5012415;28;20059;-59
2022/02/02 12:09:58;;;;;;;11.82;6.03;;;3.10;77.20;;;;;;5025013;28;20088;-59
2022/02/02 13:00:37;;;;;;;13.90;10.48;;;3.40;75.90;;;;;;5020655;28;20082;-61
2022/02/02 13:03:03;;;;;;;9.88;6.18;;;3.50;75.90;;;;;;5025811;28;20033;-61
2022/02/02 13:05:30;;;;;;;7.88;5.57;;;3.50;75.60;;;;;;5023147;28;20039;-61
2022/02/02 13:07:57;;;;;;;9.27;6.90;;;3.40;75.40;;;;;;5018615;28;20036;-61
2022/02/02 13:10:28;;;;;;;10.75;6.00;;;3.40;75.40;;;;;;5030588;28;20520;-63
2022/02/02 13:13:25;;;;;;;8.73;5.25;;;3.10;75.40;;;;;;5020470;28;20021;-61
2022/02/02 13:16:10;;;;;;;9.85;7.90;;;2.90;75.60;;;;;;5029449;28;20123;-61
2022/02/02 13:18:40;;;;;;;12.25;6.78;;;2.80;76.60;;;;;;5028143;28;20108;-60
2022/02/02 13:21:15;;;;;;;11.55;6.53;;;2.70;76.60;;;;;;5029102;28;20740;-60
2022/02/02 13:26:33;;;;;;;10.40;8.32;;;2.70;77.10;;;;;;5029654;28;20075;-61
2022/02/02 13:29:18;;;;;;;11.25;5.47;;;2.70;77.30;;;;;;5026260;28;20033;-61
2022/02/02 13:32:13;;;;;;;9.45;5.53;;;2.50;77.00;;;;;;5021041;28;21767;-60
2022/02/02 13:54:34;;;;;;;13.48;8.02;;;2.40;78.70;;;;;;5024285;28;20148;-60
2022/02/02 13:58:00;;;;;;;21.77;16.80;;;2.40;78.40;;;;;;5018657;28;20040;-61
2022/02/02 14:00:27;;;;;;;12.40;8.00;;;2.50;78.60;;;;;;5012229;28;20718;-60
2022/02/02 14:05:39;;;;;;;15.98;12.18;;;2.60;78.20;;;;;;5024901;28;20688;-60
2022/02/02 14:32:49;;;;;;;17.92;13.40;;;3.10;76.90;;;;;;5020273;28;20039;-60
2022/02/02 14:35:17;;;;;;;14.60;9.05;;;3.10;76.90;;;;;;5025157;28;20038;-60
2022/02/02 14:37:44;;;;;;;16.85;8.73;;;3.10;76.60;;;;;;5019316;28;20064;-60
2022/02/02 14:40:18;;;;;;;17.90;13.70;;;3.00;76.50;;;;;;5036661;28;20092;-61
2022/02/02 14:42:47;;;;;;;16.65;9.18;;;3.00;76.70;;;;;;5029083;28;20043;-60
2022/02/02 14:45:16;;;;;;;14.38;8.05;;;3.00;76.40;;;;;;5033507;28;20038;-61
2022/02/02 14:47:47;;;;;;;16.50;8.63;;;2.90;76.30;;;;;;5035790;28;20508;-60
2022/02/02 14:50:27;;;;;;;15.75;11.93;;;2.90;76.50;;;;;;5034432;28;20139;-61
2022/02/02 15:27:35;;;;;;;17.48;13.55;;;2.70;76.80;;;;;;5030813;28;20044;-62
2022/02/02 15:32:48;;;;;;;16.98;8.32;;;2.50;77.10;;;;;;5026207;28;20098;-61
2022/02/02 15:35:14;;;;;;;16.55;8.63;;;2.50;77.30;;;;;;5027861;28;20136;-60
2022/02/02 15:40:26;;;;;;;22.53;16.30;;;2.60;77.90;;;;;;5023492;28;20106;-59
2022/02/02 15:43:25;;;;;;;19.40;10.07;;;2.60;77.80;;;;;;5025142;28;20810;-60
2022/02/02 15:59:13;;;;;;;24.50;16.70;;;2.60;77.50;;;;;;5029571;28;20032;-59
2022/02/02 16:04:15;;;;;;;17.77;10.25;;;2.60;77.60;;;;;;5028184;28;20036;-61
2022/02/02 16:06:40;;;;;;;24.65;18.48;;;2.60;77.70;;;;;;5026190;28;20048;-61
2022/02/02 16:10:13;;;;;;;22.90;12.13;;;2.60;78.10;;;;;;5030090;28;20370;-60
2022/02/02 16:12:22;;;;;;;19.00;10.77;;;2.60;77.90;;;;;;5020888;28;20037;-60
2022/02/02 16:14:58;;;;;;;22.00;16.98;;;2.60;77.90;;;;;;5030762;28;20035;-61
2022/02/02 16:36:26;;;;;;;22.00;11.02;;;2.90;77.50;;;;;;5065789;28;20507;-60
2022/02/02 16:39:07;;;;;;;;;;;3.00;77.40;;;;;;5068978;28;20066;-58
2022/02/02 16:44:18;;;;;;;26.70;14.20;;;2.90;77.30;;;;;;5070023;28;20565;-60
2022/02/02 16:46:44;;;;;;;19.23;13.38;;;3.00;77.60;;;;;;5069462;28;20412;-60
2022/02/02 16:49:10;;;;;;;31.23;22.25;;;3.00;77.60;;;;;;5064285;28;20017;-60
2022/02/02 16:51:36;;;;;;;35.28;26.67;;;3.10;77.80;;;;;;5064480;28;20428;-60
2022/02/02 16:54:06;;;;;;;30.17;15.52;;;3.30;77.60;;;;;;5070946;28;20035;-60
2022/02/02 17:31:49;;;;;;;28.85;20.70;;;3.80;75.80;;;;;;5088351;28;20035;-60
2022/02/02 17:34:23;;;;;;;27.00;12.73;;;3.80;75.50;;;;;;5077857;28;20123;-60
2022/02/02 17:37:10;;;;;;;31.77;22.23;;;3.80;75.30;;;;;;5062291;28;20041;-60
2022/02/02 18:01:37;;;;;;;34.78;25.40;;;3.80;74.70;;;;;;5070068;28;20107;-60
2022/02/02 18:19:05;;;;;;;42.22;28.52;;;3.70;75.00;;;;;;5077951;28;20459;-60
2022/02/02 18:21:32;;;;;;;35.42;19.92;;;3.70;75.00;;;;;;5072049;28;20032;-59
2022/02/02 18:24:23;;;;;;;39.65;21.27;;;3.70;75.00;;;;;;5061654;28;20037;-60
2022/02/02 18:26:59;;;;;;;36.50;18.20;;;3.60;75.20;;;;;;5071248;28;20497;-60
2022/02/02 18:30:19;;;;;;;27.70;13.88;;;3.60;75.20;;;;;;5070191;28;20269;-60
2022/02/02 18:32:32;;;;;;;32.72;23.55;;;3.60;75.40;;;;;;5059717;28;20491;-60
2022/02/02 18:35:01;;;;;;;33.22;17.08;;;3.70;75.20;;;;;;5064868;28;20045;-60
2022/02/02 18:51:08;;;;;;;25.63;13.88;;;3.30;74.90;;;;;;5063503;28;20056;-60
2022/02/02 18:56:31;;;;;;;30.15;14.52;;;3.00;75.30;;;;;;5067430;28;20039;-60
2022/02/02 19:04:38;;;;;;;28.63;13.80;;;2.90;76.20;;;;;;5076572;28;20339;-57
2022/02/02 19:07:43;;;;;;;26.73;14.15;;;2.90;76.40;;;;;;5069004;28;20120;-58
2022/02/02 19:55:47;;;;;;;45.08;29.45;;;3.00;76.90;;;;;;5072857;28;20451;-57
2022/02/02 20:11:42;;;;;;;44.95;33.08;;;3.30;76.60;;;;;;5075087;28;20050;-58
2022/02/02 20:14:12;;;;;;;37.67;21.55;;;3.30;76.80;;;;;;5073550;28;20127;-58
2022/02/02 20:16:38;;;;;;;45.60;35.00;;;3.30;76.50;;;;;;5063879;28;20136;-58
2022/02/02 20:19:07;;;;;;;36.35;22.95;;;3.40;76.80;;;;;;5081388;28;20024;-58
2022/02/02 20:21:38;;;;;;;40.17;22.02;;;3.40;76.60;;;;;;5079643;28;20021;-57
2022/02/02 20:24:07;;;;;;;38.47;21.50;;;3.30;76.60;;;;;;5081397;28;20040;-57
2022/02/02 20:26:35;;;;;;;43.28;31.85;;;3.40;76.80;;;;;;5077981;28;20052;-58
2022/02/02 20:29:04;;;;;;;40.28;20.95;;;3.40;76.70;;;;;;5080829;28;20046;-60
2022/02/02 20:31:32;;;;;;;45.30;33.08;;;3.40;76.40;;;;;;5077531;28;20059;-58
2022/02/02 20:33:58;;;;;;;42.90;33.92;;;3.40;76.60;;;;;;5078489;28;20118;-58
2022/02/02 20:36:24;;;;;;;43.30;21.92;;;3.50;76.50;;;;;;5075742;28;20526;-57
2022/02/02 20:38:50;;;;;;;43.10;20.27;;;3.40;76.30;;;;;;5084196;28;20055;-58
2022/02/02 20:41:16;;;;;;;43.45;21.33;;;3.40;76.50;;;;;;5074992;28;20043;-57
2022/02/02 20:43:54;;;;;;;47.13;24.30;;;3.50;76.80;;;;;;5069405;28;20043;-58
2022/02/02 20:47:01;;;;;;;44.72;22.48;;;3.50;76.70;;;;;;5078575;28;20027;-58
2022/02/02 21:05:32;;;;;;;32.30;18.17;;;3.80;76.20;;;;;;5074692;28;20032;-58
2022/02/02 21:10:30;;;;;;;32.17;19.23;;;3.80;76.50;;;;;;5079006;28;20486;-58
2022/02/02 21:15:41;;;;;;;30.73;17.25;;;3.80;76.30;;;;;;5078033;28;20086;-58
2022/02/02 21:18:11;;;;;;;36.90;28.88;;;3.80;76.40;;;;;;5079371;28;20033;-58
2022/02/02 21:20:48;;;;;;;34.95;20.48;;;3.80;76.40;;;;;;5080024;28;20589;-57
2022/02/02 21:26:36;;;;;;;36.20;19.52;;;3.90;76.40;;;;;;5069771;28;20040;-57
2022/02/02 21:28:34;;;;;;;40.05;21.92;;;3.90;76.20;;;;;;5066449;28;20461;-58
2022/02/02 21:31:00;;;;;;;42.30;30.98;;;3.90;76.20;;;;;;5079611;28;20389;-58
2022/02/02 21:33:26;;;;;;;34.45;21.48;;;4.00;76.20;;;;;;5077893;28;20027;-58
2022/02/02 21:35:54;;;;;;;42.25;20.63;;;4.00;76.00;;;;;;5076472;28;20035;-57
2022/02/02 21:38:37;;;;;;;33.28;18.98;;;3.90;76.10;;;;;;5075261;28;20021;-58
2022/02/02 21:41:02;;;;;;;34.47;25.70;;;3.90;76.20;;;;;;5080042;28;20024;-58
2022/02/02 21:43:30;;;;;;;38.33;28.27;;;4.00;76.40;;;;;;5065224;28;20388;-58
2022/02/02 21:45:56;;;;;;;32.03;17.88;;;4.10;76.20;;;;;;5080712;28;20031;-57
2022/02/02 21:48:25;;;;;;;32.22;24.42;;;4.10;75.90;;;;;;5071603;28;20024;-58
2022/02/02 21:50:59;;;;;;;35.38;17.48;;;4.10;76.20;;;;;;5071050;28;20059;-57
2022/02/02 21:53:25;;;;;;;31.75;16.10;;;4.10;76.00;;;;;;5074857;28;20020;-57
2022/02/02 21:55:50;;;;;;;31.23;16.58;;;4.10;76.10;;;;;;5071373;28;20047;-57
2022/02/02 21:58:16;;;;;;;28.48;15.32;;;4.00;75.90;;;;;;5081872;28;20472;-58
2022/02/02 22:00:42;;;;;;;31.88;17.40;;;4.00;76.00;;;;;;5073949;28;20103;-57
2022/02/02 22:03:08;;;;;;;29.67;20.98;;;4.00;76.00;;;;;;5078566;28;20029;-58
2022/02/02 22:05:35;;;;;;;26.27;15.18;;;4.10;76.00;;;;;;5078728;28;20115;-57
2022/02/02 22:08:01;;;;;;;32.15;21.55;;;4.10;75.80;;;;;;5078642;28;20540;-58
2022/02/02 22:10:27;;;;;;;30.35;20.95;;;4.10;75.90;;;;;;5074953;28;20047;-58
2022/02/02 22:12:53;;;;;;;29.08;15.50;;;4.10;75.70;;;;;;5078132;28;20076;-58
2022/02/02 22:15:27;;;;;;;32.10;14.27;;;4.10;75.60;;;;;;5071299;28;20017;-57
2022/02/02 22:17:52;;;;;;;30.80;15.77;;;4.00;75.70;;;;;;5080079;28;20032;-58
2022/02/02 22:20:18;;;;;;;34.28;24.25;;;4.00;75.70;;;;;;5073535;28;20483;-57
2022/02/02 22:22:46;;;;;;;27.52;16.88;;;4.00;75.70;;;;;;5066649;28;20056;-58
2022/02/02 22:25:12;;;;;;;29.13;15.73;;;4.00;75.40;;;;;;5066622;28;20044;-58
2022/02/02 22:27:38;;;;;;;37.55;23.98;;;3.90;75.30;;;;;;5069936;28;20103;-57
2022/02/02 22:30:05;;;;;;;36.63;18.10;;;3.90;75.50;;;;;;5079962;28;20044;-57
2022/02/02 22:32:31;;;;;;;35.53;17.95;;;3.90;75.50;;;;;;5073987;28;20021;-57
2022/02/02 22:34:57;;;;;;;40.90;27.23;;;3.90;75.70;;;;;;5071841;28;20060;-58
2022/02/02 22:37:23;;;;;;;33.13;17.77;;;3.90;75.70;;;;;;5071915;28;20017;-56
2022/02/02 22:39:51;;;;;;;49.70;36.28;;;3.90;75.40;;;;;;5085216;28;20031;-58
2022/02/02 22:42:20;;;;;;;51.35;37.97;;;3.90;75.40;;;;;;5073441;28;20047;-57
2022/02/02 22:44:47;;;;;;;40.60;22.90;;;3.80;75.20;;;;;;5074003;28;20067;-58
2022/02/02 22:47:14;;;;;;;44.83;35.40;;;3.70;75.00;;;;;;5084975;28;20050;-58
2022/02/02 22:49:43;;;;;;;34.33;21.13;;;3.60;75.20;;;;;;5087698;28;20040;-58
2022/02/02 22:52:10;;;;;;;48.00;35.42;;;3.50;75.10;;;;;;5082107;28;20025;-58
2022/02/02 22:54:38;;;;;;;42.25;21.98;;;3.40;75.40;;;;;;5085568;28;20020;-57
2022/02/02 22:57:04;;;;;;;49.25;34.75;;;3.30;75.40;;;;;;5078343;28;20073;-58
2022/02/02 22:59:30;;;;;;;41.70;20.73;;;3.30;75.90;;;;;;5084974;28;20020;-57
2022/02/02 23:02:03;;;;;;;44.50;34.30;;;3.20;75.90;;;;;;5073526;28;20032;-57
2022/02/02 23:04:29;;;;;;;45.85;22.45;;;3.20;76.20;;;;;;5079496;28;20485;-57
2022/02/02 23:07:00;;;;;;;46.50;33.65;;;3.20;76.20;;;;;;5069697;28;20050;-58
2022/02/02 23:09:27;;;;;;;49.00;24.13;;;3.20;76.20;;;;;;5074573;28;20035;-58
2022/02/02 23:11:52;;;;;;;48.88;33.78;;;3.20;76.00;;;;;;5075786;28;20028;-57
2022/02/02 23:14:25;;;;;;;32.13;20.30;;;3.30;76.20;;;;;;5079524;28;20047;-58
2022/02/02 23:16:53;;;;;;;48.58;34.42;;;3.20;75.80;;;;;;5077788;28;20071;-57
2022/02/02 23:19:20;;;;;;;49.67;25.10;;;3.20;75.80;;;;;;5078361;28;20436;-58
2022/02/02 23:21:48;;;;;;;46.85;21.17;;;3.10;75.70;;;;;;5078100;28;20024;-57
2022/02/02 23:24:15;;;;;;;39.13;29.63;;;3.10;76.00;;;;;;5071259;28;20518;-58
2022/02/02 23:26:44;;;;;;;41.53;20.77;;;3.10;76.40;;;;;;5077755;28;20048;-58
2022/02/02 23:29:11;;;;;;;43.08;32.20;;;3.10;76.30;;;;;;5066712;28;20142;-57
2022/02/02 23:31:37;;;;;;;36.72;20.98;;;3.10;76.30;;;;;;5071799;28;20032;-57
2022/02/02 23:34:03;;;;;;;34.22;17.08;;;3.10;76.20;;;;;;5075475;28;20385;-58
2022/02/02 23:36:28;;;;;;;26.58;14.18;;;3.10;76.30;;;;;;5081097;28;20031;-58
2022/02/02 23:38:54;;;;;;;39.90;27.27;;;3.10;76.40;;;;;;5066617;28;20025;-58
2022/02/02 23:43:55;;;;;;;38.15;17.05;;;3.10;76.40;;;;;;5070077;28;20123;-57
2022/02/02 23:46:27;;;;;;;38.35;16.75;;;3.00;76.40;;;;;;5070660;28;20103;-58
2022/02/02 23:49:06;;;;;;;24.67;12.35;;;3.00;76.50;;;;;;5064271;28;20059;-58